Ana Sayfa
METAR-TAF:

METAR-TAF

Havaalanları :

Dillon Airport

Dillon, Montana, Amerika Birleşik Devletleri

Enlem: 45-15-27N, Boylam: 112-33-16W, yükseklik: 1597 m

Güncel hava durumu gözlemi

Rapor saat 14:53 UTC de 42 dakika önce yapıldı.
Rüzgar güneybatıdan 13 kt
Sıcaklık 12°C
Nem 58%
Basınç 1015 hPa
Görüş mesafesi: 16.1 km
Açık gökyüzü

METAR: KDLN 241453Z AUTO 22013KT 10SM CLR 12/04 A2998 RMK AO2 SLP119 T01170039 50000

Saat: 09:35 (15:35 UTC)


TAF: eksik

4.000'den fazla havaalanı için hava durumu gözlemleri ve tahminleri (METAR ve TAF raporları).

Kullanılabilir istasyonlar harita üzerinde sarı ve kırmızı noktalarla gösterilir.

İstasyonun adını görmek için fareyi noktanın üzerinde gezdirin.

Sonrasında hava gözlem ve tahminlerini görmek için tıklayın.

Haritayı değiştirmek için: yaklaştırmak için siyah artı işaretli yeşil düğmeye ve uzaklaştırmak için de eksi işaretli düğmeye hızla tıklayın; bitişik haritalar için yeşil okları kullanın.


METAR-TAF: